Terminal Aerodrome Forecast
Issued by NWS

Current Version | Previous Version | Graphics & Text | Print | Product List | Glossary On
Versions: 1 2 3 4 5 6 7 8 9 10 11 12 13 14 15 16 17 18 19 20
000
FTUS41 KRNK 222157 AAA
TAFLWB
TAF AMD
KLWB 222157Z 2222/2318 00000KT P6SM SCT010 OVC020
     FM230200 00000KT 5SM BR BKN025
     FM230500 00000KT 5SM BR BKN007
     FM230800 00000KT 3SM BR OVC007
     FM231300 00000KT P6SM OVC008
     FM231500 VRB03KT P6SM BKN014=

USA.gov is the U.S. government's official web portal to all federal, state and local government web resources and services.